createdAt,value
2023-01-21T00:01:17.785Z,17.05
2023-01-21T00:03:46.136Z,17.15
2023-01-21T00:06:15.171Z,16.60
2023-01-21T00:08:43.423Z,16.10
2023-01-21T00:11:14.786Z,14.52
2023-01-21T00:13:43.456Z,15.98
2023-01-21T00:16:12.686Z,15.13
2023-01-21T00:18:42.334Z,16.98
2023-01-21T00:21:10.473Z,15.85
2023-01-21T00:23:38.376Z,16.15
2023-01-21T00:26:07.906Z,17.38
2023-01-21T00:28:37.380Z,18.33
2023-01-21T00:31:07.266Z,16.33
2023-01-21T00:33:35.711Z,15.93
2023-01-21T00:36:07.237Z,16.35
2023-01-21T00:38:36.034Z,16.15
2023-01-21T00:41:05.987Z,16.33
2023-01-21T00:43:34.441Z,16.63
2023-01-21T00:46:02.529Z,16.45
2023-01-21T00:48:30.800Z,18.08
2023-01-21T00:51:01.078Z,17.15
2023-01-21T00:53:31.833Z,17.42
2023-01-21T00:56:01.436Z,17.67
2023-01-21T00:58:30.224Z,17.48
2023-01-21T01:01:02.787Z,16.65
2023-01-21T01:03:30.957Z,16.05
2023-01-21T01:06:03.296Z,17.20
2023-01-21T01:08:33.373Z,16.42
2023-01-21T01:11:02.016Z,15.38
2023-01-21T01:13:30.517Z,15.43
2023-01-21T01:15:58.838Z,14.70
2023-01-21T01:18:27.803Z,14.30
2023-01-21T01:20:55.874Z,14.50
2023-01-21T01:23:24.038Z,15.15
2023-01-21T01:26:02.408Z,15.75
2023-01-21T01:28:31.149Z,15.95
2023-01-21T01:30:59.851Z,14.23
2023-01-21T01:33:28.515Z,15.10
2023-01-21T01:35:56.596Z,15.48
2023-01-21T01:38:24.685Z,15.25
2023-01-21T01:40:53.804Z,16.15
2023-01-21T01:43:26.506Z,15.57
2023-01-21T01:45:55.232Z,15.07
2023-01-21T01:48:28.256Z,14.23
2023-01-21T01:50:59.392Z,13.23
2023-01-21T01:53:28.702Z,15.63
2023-01-21T01:55:56.860Z,14.80
2023-01-21T01:58:26.575Z,13.55
2023-01-21T02:00:54.519Z,13.65
2023-01-21T02:03:40.936Z,14.23
2023-01-21T02:06:09.064Z,13.45
2023-01-21T02:08:37.293Z,13.60
2023-01-21T02:11:12.052Z,14.38
2023-01-21T02:13:43.258Z,14.40
2023-01-21T02:16:29.571Z,13.77
2023-01-21T02:19:08.141Z,12.57
2023-01-21T02:22:03.892Z,13.57
2023-01-21T02:25:06.202Z,13.88
2023-01-21T02:27:47.768Z,13.88
2023-01-21T02:30:39.769Z,14.32
2023-01-21T02:33:21.412Z,15.27
2023-01-21T02:35:56.145Z,14.20
2023-01-21T02:38:30.133Z,14.35
2023-01-21T02:41:07.600Z,15.38
2023-01-21T02:43:44.639Z,15.23
2023-01-21T02:46:18.680Z,13.45
2023-01-21T02:48:57.891Z,13.43
2023-01-21T02:51:26.109Z,12.85
2023-01-21T02:53:54.028Z,14.25
2023-01-21T02:56:25.789Z,13.27
2023-01-21T02:58:58.566Z,14.40
2023-01-21T03:01:38.789Z,13.30
2023-01-21T03:04:49.821Z,12.15
2023-01-21T03:07:23.470Z,12.63
2023-01-21T03:09:51.661Z,13.48
2023-01-21T03:12:32.065Z,12.95
2023-01-21T03:15:23.622Z,13.23
2023-01-21T03:17:57.475Z,12.70
2023-01-21T03:20:30.760Z,12.95
2023-01-21T03:23:05.013Z,13.20
2023-01-21T03:25:34.840Z,13.57
2023-01-21T03:28:07.809Z,12.73
2023-01-21T03:30:38.153Z,13.52
2023-01-21T03:33:07.712Z,13.75
2023-01-21T03:35:41.992Z,13.55
2023-01-21T03:38:15.927Z,13.55
2023-01-21T03:40:48.650Z,12.77
2023-01-21T03:43:16.786Z,11.57
2023-01-21T03:46:01.676Z,12.25
2023-01-21T03:48:35.651Z,12.25
2023-01-21T03:51:11.195Z,11.60
2023-01-21T03:53:39.346Z,11.07
2023-01-21T03:56:07.593Z,11.05
2023-01-21T03:58:35.785Z,10.98
2023-01-21T04:01:03.904Z,10.80
2023-01-21T04:03:32.370Z,11.23
2023-01-21T04:06:00.303Z,10.40
2023-01-21T04:08:29.712Z,11.43
2023-01-21T04:10:57.799Z,10.73
2023-01-21T04:13:25.785Z,10.68
2023-01-21T04:15:53.963Z,10.65
2023-01-21T04:18:22.150Z,11.05
2023-01-21T04:20:51.083Z,11.15
2023-01-21T04:23:19.305Z,11.07
2023-01-21T04:25:50.428Z,10.45
2023-01-21T04:28:19.272Z,10.55
2023-01-21T04:30:48.366Z,10.60
2023-01-21T04:33:17.074Z,10.75
2023-01-21T04:35:45.326Z,11.43
2023-01-21T04:38:13.986Z,11.32
2023-01-21T04:40:42.260Z,11.35
2023-01-21T04:43:11.666Z,12.88
2023-01-21T04:45:39.916Z,11.82
2023-01-21T04:48:08.885Z,11.80
2023-01-21T04:50:37.047Z,11.15
2023-01-21T04:53:05.541Z,11.38
2023-01-21T04:55:33.847Z,11.50
2023-01-21T04:58:01.894Z,11.68
2023-01-21T05:00:31.451Z,12.27
2023-01-21T05:02:59.390Z,12.13
2023-01-21T05:05:28.095Z,13.43
2023-01-21T05:07:56.305Z,13.80
2023-01-21T05:10:24.503Z,13.65
2023-01-21T05:12:52.786Z,12.55
2023-01-21T05:15:21.129Z,12.52
2023-01-21T05:17:50.596Z,12.32
2023-01-21T05:20:18.673Z,13.07
2023-01-21T05:22:50.429Z,12.80
2023-01-21T05:25:21.086Z,13.40
2023-01-21T05:27:53.167Z,12.20
2023-01-21T05:30:21.688Z,12.23
2023-01-21T05:32:54.637Z,13.25
2023-01-21T05:35:24.343Z,12.90
2023-01-21T05:37:52.471Z,12.13
2023-01-21T05:40:20.728Z,12.57
2023-01-21T05:42:51.424Z,12.70
2023-01-21T05:45:20.140Z,12.00
2023-01-21T05:47:48.514Z,12.23
2023-01-21T05:50:18.408Z,12.20
2023-01-21T05:52:47.094Z,13.65
2023-01-21T05:55:15.269Z,13.10
2023-01-21T05:57:43.378Z,13.40
2023-01-21T06:00:12.749Z,13.50
2023-01-21T06:02:40.983Z,14.02
2023-01-21T06:05:11.211Z,13.77
2023-01-21T06:07:40.927Z,13.05
2023-01-21T06:10:10.241Z,14.40
2023-01-21T06:12:38.412Z,13.02
2023-01-21T06:15:07.560Z,14.15
2023-01-21T06:17:35.878Z,12.95
2023-01-21T06:20:04.377Z,13.85
2023-01-21T06:22:35.847Z,14.48
2023-01-21T06:25:06.185Z,13.70
2023-01-21T06:27:37.338Z,13.52
2023-01-21T06:30:07.184Z,13.95
2023-01-21T06:32:35.857Z,14.10
2023-01-21T06:35:04.396Z,13.50
2023-01-21T06:37:32.400Z,14.73
2023-01-21T06:40:00.574Z,14.20
2023-01-21T06:42:31.767Z,12.50
2023-01-21T06:45:00.047Z,12.95
2023-01-21T06:47:28.332Z,11.90
2023-01-21T06:49:56.597Z,12.65
2023-01-21T06:52:24.884Z,12.02
2023-01-21T06:54:53.048Z,13.90
2023-01-21T06:57:21.559Z,13.25
2023-01-21T06:59:51.245Z,13.40
2023-01-21T07:02:19.449Z,14.43
2023-01-21T07:04:51.001Z,13.73
2023-01-21T07:07:19.381Z,14.00
2023-01-21T07:09:50.569Z,14.27
2023-01-21T07:12:18.883Z,13.18
2023-01-21T07:14:50.124Z,13.13
2023-01-21T07:17:18.298Z,12.43
2023-01-21T07:19:46.416Z,13.05
2023-01-21T07:22:14.791Z,11.57
2023-01-21T07:24:42.972Z,13.32
2023-01-21T07:27:10.987Z,10.63
2023-01-21T07:29:39.163Z,12.23
2023-01-21T07:32:08.800Z,12.68
2023-01-21T07:34:36.903Z,12.95
2023-01-21T07:37:04.997Z,13.82
2023-01-21T07:39:33.253Z,12.13
2023-01-21T07:42:01.339Z,13.82
2023-01-21T07:44:29.432Z,12.95
2023-01-21T07:46:57.584Z,14.05
2023-01-21T07:49:27.121Z,14.13
2023-01-21T07:51:58.287Z,13.32
2023-01-21T07:54:26.530Z,14.13
2023-01-21T07:56:54.684Z,13.63
2023-01-21T07:59:23.203Z,13.90
2023-01-21T08:01:51.486Z,14.52
2023-01-21T08:04:19.717Z,13.43
2023-01-21T08:06:51.223Z,12.90
2023-01-21T08:09:19.606Z,12.95
2023-01-21T08:11:47.762Z,13.18
2023-01-21T08:14:16.202Z,13.45
2023-01-21T08:16:44.561Z,12.35
2023-01-21T08:19:13.964Z,13.40
2023-01-21T08:21:42.059Z,11.73
2023-01-21T08:24:11.900Z,13.15
2023-01-21T08:26:40.076Z,12.52
2023-01-21T08:29:08.044Z,12.90
2023-01-21T08:31:36.424Z,13.40
2023-01-21T08:34:04.601Z,13.38
2023-01-21T08:36:32.568Z,13.77
2023-01-21T08:39:04.036Z,13.48
2023-01-21T08:41:33.719Z,13.55
2023-01-21T08:44:01.844Z,13.07
2023-01-21T08:46:30.102Z,13.88
2023-01-21T08:48:58.163Z,12.95
2023-01-21T08:51:26.585Z,14.15
2023-01-21T08:53:54.632Z,14.25
2023-01-21T08:56:22.693Z,13.02
2023-01-21T08:58:55.745Z,13.55
2023-01-21T09:01:25.934Z,12.80
2023-01-21T09:03:57.278Z,13.50
2023-01-21T09:06:26.782Z,13.27
2023-01-21T09:08:54.790Z,11.80
2023-01-21T09:11:23.190Z,11.93
2023-01-21T09:13:52.753Z,13.70
2023-01-21T09:16:22.469Z,12.57
2023-01-21T09:18:51.126Z,12.18
2023-01-21T09:21:19.249Z,13.18
2023-01-21T09:23:47.141Z,11.68
2023-01-21T09:26:17.064Z,12.80
2023-01-21T09:28:47.805Z,12.90
2023-01-21T09:31:20.707Z,11.75
2023-01-21T09:33:50.717Z,12.98
2023-01-21T09:36:23.372Z,12.38
2023-01-21T09:38:52.877Z,12.25
2023-01-21T09:41:26.713Z,11.07
2023-01-21T09:44:01.541Z,11.40
2023-01-21T09:46:36.435Z,10.57
2023-01-21T09:49:08.316Z,11.85
2023-01-21T09:51:46.706Z,11.43
2023-01-21T09:54:21.972Z,11.88
2023-01-21T09:57:22.720Z,11.80
2023-01-21T10:00:05.585Z,10.75
2023-01-21T10:02:43.474Z,11.57
2023-01-21T10:05:42.496Z,11.48
2023-01-21T10:08:18.646Z,10.52
2023-01-21T10:10:54.859Z,10.88
2023-01-21T10:13:42.364Z,11.98
2023-01-21T10:16:19.650Z,10.52
2023-01-21T10:18:51.514Z,11.00
2023-01-21T10:21:29.635Z,11.65
2023-01-21T10:24:02.685Z,10.65
2023-01-21T10:26:33.076Z,11.32
2023-01-21T10:29:01.815Z,9.80
2023-01-21T10:31:31.377Z,10.07
2023-01-21T10:34:00.909Z,11.20
2023-01-21T10:36:53.660Z,10.85
2023-01-21T10:39:31.514Z,10.38
2023-01-21T10:42:16.694Z,10.80
2023-01-21T10:44:50.925Z,10.68
2023-01-21T10:47:29.127Z,10.20
2023-01-21T10:50:05.889Z,10.18
2023-01-21T10:52:45.170Z,11.25
2023-01-21T10:55:27.637Z,10.95
2023-01-21T10:57:59.903Z,11.27
2023-01-21T11:00:30.816Z,10.63
2023-01-21T11:03:02.779Z,10.02
2023-01-21T11:06:23.961Z,10.02
2023-01-21T11:08:28.461Z,10.30
2023-01-21T11:10:57.887Z,9.50
2023-01-21T11:13:26.223Z,9.75
2023-01-21T11:15:58.055Z,9.68
2023-01-21T11:18:32.399Z,8.55
2023-01-21T11:21:15.205Z,9.63
2023-01-21T11:23:43.332Z,9.55
2023-01-21T11:26:21.520Z,10.57
2023-01-21T11:28:49.614Z,9.93
2023-01-21T11:31:26.466Z,9.73
2023-01-21T11:33:56.279Z,10.48
2023-01-21T11:36:25.610Z,10.77
2023-01-21T11:39:02.634Z,10.13
2023-01-21T11:41:30.969Z,9.30
2023-01-21T11:44:10.810Z,11.02
2023-01-21T11:46:39.903Z,10.65
2023-01-21T11:49:55.121Z,10.43
2023-01-21T11:53:22.998Z,10.45
2023-01-21T11:55:26.093Z,10.93
2023-01-21T11:57:56.843Z,10.85
2023-01-21T12:00:28.208Z,11.68
2023-01-21T12:03:00.477Z,11.73
2023-01-21T12:05:33.686Z,11.80
2023-01-21T12:08:05.004Z,12.38
2023-01-21T12:10:36.996Z,11.80
2023-01-21T12:13:17.730Z,11.30
2023-01-21T12:16:36.090Z,10.48
2023-01-21T12:19:16.637Z,10.77
2023-01-21T12:22:06.640Z,10.70
2023-01-21T12:24:53.506Z,9.68
2023-01-21T12:27:32.106Z,9.98
2023-01-21T12:30:17.033Z,9.55
2023-01-21T12:32:50.599Z,9.50
2023-01-21T12:35:27.676Z,9.70
2023-01-21T12:38:00.458Z,9.43
2023-01-21T12:40:34.613Z,8.35
2023-01-21T12:43:08.719Z,8.10
2023-01-21T12:45:42.090Z,8.27
2023-01-21T12:48:18.421Z,9.00
2023-01-21T12:50:53.195Z,8.80
2023-01-21T12:53:29.818Z,8.13
2023-01-21T12:56:09.428Z,8.07
2023-01-21T12:58:44.654Z,8.57
2023-01-21T13:01:20.418Z,8.55
2023-01-21T13:03:59.690Z,8.45
2023-01-21T13:06:52.702Z,8.40
2023-01-21T13:09:32.292Z,8.00
2023-01-21T13:12:06.716Z,8.30
2023-01-21T13:14:38.765Z,8.38
2023-01-21T13:17:15.604Z,7.95
2023-01-21T13:19:43.918Z,7.75
2023-01-21T13:22:25.925Z,7.75
2023-01-21T13:25:08.445Z,7.82
2023-01-21T13:27:44.589Z,8.38
2023-01-21T13:30:22.446Z,8.52
2023-01-21T13:32:56.868Z,8.32
2023-01-21T13:35:35.121Z,8.05
2023-01-21T13:38:12.554Z,8.20
2023-01-21T13:40:47.559Z,9.10
2023-01-21T13:43:38.475Z,8.30
2023-01-21T13:46:22.726Z,7.90
2023-01-21T13:49:15.369Z,8.68
2023-01-21T13:51:56.111Z,8.88
2023-01-21T13:54:40.520Z,8.00
2023-01-21T13:57:33.845Z,8.85
2023-01-21T14:00:07.918Z,9.00
2023-01-21T14:02:44.731Z,9.20
2023-01-21T14:05:17.210Z,8.50
2023-01-21T14:07:50.759Z,8.77
2023-01-21T14:10:28.535Z,8.68
2023-01-21T14:13:20.239Z,8.20
2023-01-21T14:16:11.575Z,8.45
2023-01-21T14:18:54.654Z,7.85
2023-01-21T14:21:45.942Z,8.30
2023-01-21T14:24:22.925Z,8.68
2023-01-21T14:27:05.150Z,8.35
2023-01-21T14:29:37.962Z,7.68
2023-01-21T14:32:15.128Z,7.70
2023-01-21T14:34:51.780Z,7.95
2023-01-21T14:37:30.035Z,8.10
2023-01-21T14:40:12.621Z,8.00
2023-01-21T14:42:42.577Z,8.25
2023-01-21T14:45:12.852Z,7.97
2023-01-21T14:47:53.667Z,12.30
2023-01-21T15:02:30.831Z,9.27
2023-01-21T15:05:03.066Z,8.75
2023-01-21T15:07:36.511Z,9.52
2023-01-21T15:10:15.071Z,10.07
2023-01-21T15:12:51.729Z,9.30
2023-01-21T15:15:36.859Z,9.73
2023-01-21T15:18:25.430Z,9.32
2023-01-21T15:20:58.199Z,8.60
2023-01-21T15:23:38.818Z,10.45
2023-01-21T15:26:19.982Z,10.07
2023-01-21T15:28:49.548Z,10.63
2023-01-21T15:31:41.001Z,10.50
2023-01-21T15:34:15.248Z,10.20
2023-01-21T15:36:53.099Z,9.80
2023-01-21T15:39:30.237Z,8.88
2023-01-21T15:42:10.709Z,9.63
2023-01-21T15:45:01.042Z,9.38
2023-01-21T15:47:56.075Z,8.93
2023-01-21T15:50:30.374Z,9.68
2023-01-21T15:53:22.696Z,8.98
2023-01-21T15:56:13.944Z,10.57
2023-01-21T15:58:55.372Z,9.20
2023-01-21T16:01:32.798Z,9.00
2023-01-21T16:04:20.046Z,8.98
2023-01-21T16:06:58.677Z,9.60
2023-01-21T16:09:42.048Z,9.55
2023-01-21T16:12:20.987Z,9.23
2023-01-21T16:15:01.129Z,10.18
2023-01-21T16:17:45.288Z,10.20
2023-01-21T16:20:16.543Z,10.40
2023-01-21T16:22:47.999Z,10.13
2023-01-21T16:25:21.089Z,11.77
2023-01-21T16:35:07.744Z,12.55
2023-01-21T16:37:36.751Z,12.30
2023-01-21T16:40:28.164Z,11.98
2023-01-21T16:43:13.060Z,19.65
2023-01-21T16:45:41.632Z,14.43
2023-01-21T16:48:23.007Z,11.70
2023-01-21T16:50:51.507Z,16.25
2023-01-21T16:53:21.208Z,12.30
2023-01-21T16:55:53.127Z,10.93
2023-01-21T16:58:26.334Z,11.60
2023-01-21T17:01:06.079Z,12.82
2023-01-21T17:03:35.143Z,14.80
2023-01-21T17:06:13.049Z,12.40
2023-01-21T17:08:42.401Z,13.23
2023-01-21T17:11:13.104Z,13.10
2023-01-21T17:13:44.216Z,12.57
2023-01-21T17:16:23.843Z,10.85
2023-01-21T17:18:55.127Z,11.80
2023-01-21T17:21:31.921Z,10.70
2023-01-21T17:24:03.519Z,11.38
2023-01-21T17:26:36.997Z,11.27
2023-01-21T17:29:13.072Z,10.75
2023-01-21T17:31:43.266Z,10.70
2023-01-21T17:34:24.032Z,10.38
2023-01-21T17:36:56.234Z,10.43
2023-01-21T17:40:01.041Z,11.35
2023-01-21T17:42:38.817Z,9.95
2023-01-21T17:45:08.521Z,11.30
2023-01-21T17:47:58.320Z,11.15
2023-01-21T17:50:28.594Z,10.27
2023-01-21T17:52:59.276Z,9.35
2023-01-21T17:55:30.953Z,9.93
2023-01-21T17:58:04.669Z,9.93
2023-01-21T18:00:38.949Z,10.43
2023-01-21T18:03:07.224Z,12.10
2023-01-21T18:05:38.277Z,9.07
2023-01-21T18:08:14.417Z,9.98
2023-01-21T18:10:43.050Z,9.30
2023-01-21T18:13:14.676Z,9.57
2023-01-21T18:15:45.235Z,9.48
2023-01-21T18:18:17.917Z,9.75
2023-01-21T18:20:47.506Z,8.98
2023-01-21T18:23:18.211Z,8.90
2023-01-21T18:25:50.951Z,9.38
2023-01-21T18:28:22.621Z,8.38
2023-01-21T18:30:51.861Z,9.38
2023-01-21T18:33:20.494Z,9.27
2023-01-21T18:35:50.618Z,9.82
2023-01-21T18:38:21.790Z,9.38
2023-01-21T18:40:49.759Z,9.65
2023-01-21T18:43:18.492Z,10.73
2023-01-21T18:45:48.050Z,15.55
2023-01-21T18:48:17.805Z,10.75
2023-01-21T18:50:46.009Z,10.75
2023-01-21T18:53:15.919Z,10.15
2023-01-21T18:55:48.470Z,10.07
2023-01-21T18:58:16.788Z,9.18
2023-01-21T19:00:44.931Z,9.07
2023-01-21T19:03:15.525Z,9.77
2023-01-21T19:05:47.602Z,8.07
2023-01-21T19:08:18.635Z,9.82
2023-01-21T19:10:46.890Z,10.73
2023-01-21T19:13:15.234Z,11.00
2023-01-21T19:15:43.889Z,9.50
2023-01-21T19:18:12.826Z,10.10
2023-01-21T19:20:43.010Z,10.70
2023-01-21T19:23:12.829Z,35.35
2023-01-21T19:25:40.995Z,12.27
2023-01-21T19:28:13.310Z,13.90
2023-01-21T19:30:45.229Z,12.60
2023-01-21T19:33:13.613Z,10.43
2023-01-21T19:35:46.175Z,8.85
2023-01-21T19:38:17.681Z,10.40
2023-01-21T19:40:46.820Z,10.55
2023-01-21T19:43:15.769Z,11.70
2023-01-21T19:45:44.316Z,10.45
2023-01-21T19:48:14.250Z,9.50
2023-01-21T19:50:44.283Z,10.95
2023-01-21T19:53:15.597Z,12.93
2023-01-21T19:55:44.637Z,9.20
2023-01-21T19:58:19.445Z,9.27
2023-01-21T20:00:49.619Z,8.15
2023-01-21T20:03:19.192Z,8.18
2023-01-21T20:05:50.763Z,8.02
2023-01-21T20:08:22.697Z,7.72
2023-01-21T20:10:51.044Z,7.45
2023-01-21T20:13:18.970Z,8.32
2023-01-21T20:15:48.689Z,6.88
2023-01-21T20:18:20.645Z,7.22
2023-01-21T20:20:50.082Z,8.43
2023-01-21T20:23:19.458Z,6.97
2023-01-21T20:25:50.014Z,7.40
2023-01-21T20:28:22.025Z,7.00
2023-01-21T20:30:51.094Z,7.63
2023-01-21T20:33:20.714Z,6.75
2023-01-21T20:35:52.257Z,8.73
2023-01-21T20:38:25.205Z,10.43
2023-01-21T20:40:53.179Z,11.68
2023-01-21T20:43:21.211Z,11.90
2023-01-21T20:45:50.621Z,13.40
2023-01-21T20:48:22.972Z,9.18
2023-01-21T20:50:54.495Z,10.73
2023-01-21T20:53:23.005Z,9.95
2023-01-21T20:55:51.835Z,8.10
2023-01-21T20:58:22.024Z,9.70
2023-01-21T21:00:50.608Z,8.60
2023-01-21T21:03:19.747Z,10.05
2023-01-21T21:05:49.482Z,8.10
2023-01-21T21:08:21.872Z,8.20
2023-01-21T21:10:52.916Z,8.27
2023-01-21T21:13:21.045Z,9.10
2023-01-21T21:15:51.037Z,8.15
2023-01-21T21:18:19.219Z,7.80
2023-01-21T21:20:47.215Z,8.05
2023-01-21T21:23:15.870Z,7.30
2023-01-21T21:25:47.463Z,8.25
2023-01-21T21:28:17.343Z,7.57
2023-01-21T21:30:46.078Z,7.57
2023-01-21T21:33:19.171Z,7.78
2023-01-21T21:35:47.838Z,9.00
2023-01-21T21:38:17.673Z,7.57
2023-01-21T21:40:47.860Z,8.00
2023-01-21T21:43:32.728Z,7.07
2023-01-21T21:46:23.761Z,7.70
2023-01-21T21:48:52.825Z,7.68
2023-01-21T21:51:22.881Z,7.68
2023-01-21T21:53:54.189Z,6.32
2023-01-21T21:56:24.834Z,7.57
2023-01-21T21:58:53.140Z,7.45
2023-01-21T22:01:23.174Z,7.00
2023-01-21T22:03:51.593Z,6.85
2023-01-21T22:06:21.736Z,7.38
2023-01-21T22:08:50.369Z,7.07
2023-01-21T22:11:20.059Z,7.05
2023-01-21T22:13:51.207Z,7.80
2023-01-21T22:16:21.435Z,6.80
2023-01-21T22:18:49.388Z,8.18
2023-01-21T22:21:20.334Z,7.03
2023-01-21T22:23:49.373Z,7.53
2023-01-21T22:26:19.054Z,6.82
2023-01-21T22:28:47.693Z,8.00
2023-01-21T22:31:19.135Z,6.93
2023-01-21T22:33:47.795Z,7.38
2023-01-21T22:36:18.410Z,7.72
2023-01-21T22:38:47.138Z,7.57
2023-01-21T22:41:17.311Z,7.75
2023-01-21T22:43:48.546Z,7.20
2023-01-21T22:46:20.382Z,6.95
2023-01-21T22:48:48.685Z,8.05
2023-01-21T22:51:21.369Z,7.65
2023-01-21T22:53:50.927Z,7.90
2023-01-21T22:56:23.415Z,7.72
2023-01-21T22:58:51.715Z,7.93
2023-01-21T23:01:25.985Z,7.65
2023-01-21T23:03:55.240Z,7.50
2023-01-21T23:06:23.294Z,6.65
2023-01-21T23:08:51.692Z,7.60
2023-01-21T23:11:20.918Z,7.82
2023-01-21T23:13:50.215Z,8.05
2023-01-21T23:16:21.101Z,7.32
2023-01-21T23:18:50.979Z,7.70
2023-01-21T23:21:21.106Z,8.02
2023-01-21T23:23:50.164Z,8.70
2023-01-21T23:26:19.760Z,7.85
2023-01-21T23:28:47.919Z,7.88
2023-01-21T23:31:17.851Z,8.18
2023-01-21T23:33:49.710Z,7.40
2023-01-21T23:36:19.567Z,7.25
2023-01-21T23:38:47.563Z,7.03
2023-01-21T23:41:17.070Z,7.78
2023-01-21T23:43:45.548Z,7.45
2023-01-21T23:46:16.512Z,7.07
2023-01-21T23:48:44.832Z,8.18
2023-01-21T23:51:15.390Z,8.05
2023-01-21T23:53:45.077Z,6.63
2023-01-21T23:56:15.749Z,8.45
2023-01-21T23:58:44.080Z,7.82
